sensor_id;sensor_type;location;lat;lon;timestamp;pressure;altitude;pressure_sealevel;temperature;humidity
9764;BME280;4921;43.214;27.936;2023-10-19T00:00:20;101253.22;;;13.20;100.00
9764;BME280;4921;43.214;27.936;2023-10-19T00:02:49;101255.53;;;13.14;100.00
9764;BME280;4921;43.214;27.936;2023-10-19T00:05:20;101253.66;;;13.05;100.00
9764;BME280;4921;43.214;27.936;2023-10-19T00:07:46;101254.94;;;13.10;100.00
9764;BME280;4921;43.214;27.936;2023-10-19T00:10:13;101251.66;;;13.18;100.00
9764;BME280;4921;43.214;27.936;2023-10-19T00:12:42;101243.75;;;13.18;100.00
9764;BME280;4921;43.214;27.936;2023-10-19T00:15:18;101245.56;;;13.17;100.00
9764;BME280;4921;43.214;27.936;2023-10-19T00:17:51;101247.44;;;13.26;100.00
9764;BME280;4921;43.214;27.936;2023-10-19T00:20:20;101247.06;;;13.31;100.00
9764;BME280;4921;43.214;27.936;2023-10-19T00:23:17;101244.34;;;13.32;100.00
9764;BME280;4921;43.214;27.936;2023-10-19T00:25:50;101241.84;;;13.20;100.00
9764;BME280;4921;43.214;27.936;2023-10-19T00:28:17;101252.66;;;13.17;100.00
9764;BME280;4921;43.214;27.936;2023-10-19T00:30:44;101246.16;;;13.21;100.00
9764;BME280;4921;43.214;27.936;2023-10-19T00:33:13;101241.38;;;13.15;100.00
9764;BME280;4921;43.214;27.936;2023-10-19T00:35:44;101241.88;;;13.09;100.00
9764;BME280;4921;43.214;27.936;2023-10-19T00:38:16;101236.81;;;13.06;100.00
9764;BME280;4921;43.214;27.936;2023-10-19T00:41:05;101247.50;;;13.15;100.00
9764;BME280;4921;43.214;27.936;2023-10-19T00:43:38;101241.72;;;13.21;100.00
9764;BME280;4921;43.214;27.936;2023-10-19T00:46:09;101235.97;;;13.16;100.00
9764;BME280;4921;43.214;27.936;2023-10-19T00:48:44;101233.09;;;13.08;100.00
9764;BME280;4921;43.214;27.936;2023-10-19T00:51:13;101232.22;;;12.96;100.00
9764;BME280;4921;43.214;27.936;2023-10-19T00:53:53;101229.94;;;13.03;100.00
9764;BME280;4921;43.214;27.936;2023-10-19T00:56:21;101242.22;;;12.93;100.00
9764;BME280;4921;43.214;27.936;2023-10-19T00:58:52;101235.00;;;12.95;100.00
9764;BME280;4921;43.214;27.936;2023-10-19T01:01:24;101239.09;;;12.88;100.00
9764;BME280;4921;43.214;27.936;2023-10-19T01:03:55;101227.09;;;12.84;100.00
9764;BME280;4921;43.214;27.936;2023-10-19T01:06:24;101239.09;;;12.88;100.00
9764;BME280;4921;43.214;27.936;2023-10-19T01:08:51;101236.00;;;12.83;100.00
9764;BME280;4921;43.214;27.936;2023-10-19T01:11:20;101232.88;;;12.78;100.00
9764;BME280;4921;43.214;27.936;2023-10-19T01:13:47;101233.34;;;12.72;100.00
9764;BME280;4921;43.214;27.936;2023-10-19T01:16:17;101228.44;;;12.78;100.00
9764;BME280;4921;43.214;27.936;2023-10-19T01:18:49;101226.16;;;12.74;100.00
9764;BME280;4921;43.214;27.936;2023-10-19T01:21:22;101228.88;;;12.83;100.00
9764;BME280;4921;43.214;27.936;2023-10-19T01:23:54;101234.78;;;12.76;100.00
9764;BME280;4921;43.214;27.936;2023-10-19T01:26:21;101230.59;;;12.73;100.00
9764;BME280;4921;43.214;27.936;2023-10-19T01:28:51;101225.78;;;12.67;100.00
9764;BME280;4921;43.214;27.936;2023-10-19T01:31:26;101221.09;;;12.71;100.00
9764;BME280;4921;43.214;27.936;2023-10-19T01:34:04;101223.16;;;12.67;100.00
9764;BME280;4921;43.214;27.936;2023-10-19T01:36:31;101216.09;;;12.68;100.00
9764;BME280;4921;43.214;27.936;2023-10-19T01:39:04;101220.88;;;12.63;100.00
9764;BME280;4921;43.214;27.936;2023-10-19T01:41:35;101220.75;;;12.64;100.00
9764;BME280;4921;43.214;27.936;2023-10-19T01:44:03;101219.44;;;12.70;100.00
9764;BME280;4921;43.214;27.936;2023-10-19T01:46:30;101219.44;;;12.70;100.00
9764;BME280;4921;43.214;27.936;2023-10-19T01:49:00;101216.19;;;12.66;100.00
9764;BME280;4921;43.214;27.936;2023-10-19T01:51:29;101210.53;;;12.60;100.00
9764;BME280;4921;43.214;27.936;2023-10-19T01:53:58;101209.81;;;12.58;100.00
9764;BME280;4921;43.214;27.936;2023-10-19T01:56:27;101212.25;;;12.61;100.00
9764;BME280;4921;43.214;27.936;2023-10-19T01:58:54;101211.97;;;12.75;100.00
9764;BME280;4921;43.214;27.936;2023-10-19T02:01:23;101217.88;;;12.78;100.00
9764;BME280;4921;43.214;27.936;2023-10-19T02:03:55;101217.97;;;12.77;100.00
9764;BME280;4921;43.214;27.936;2023-10-19T02:06:24;101207.91;;;12.71;100.00
9764;BME280;4921;43.214;27.936;2023-10-19T02:08:55;101213.06;;;12.83;100.00
9764;BME280;4921;43.214;27.936;2023-10-19T02:11:28;101200.72;;;12.73;100.00
9764;BME280;4921;43.214;27.936;2023-10-19T02:13:56;101217.25;;;12.75;100.00
9764;BME280;4921;43.214;27.936;2023-10-19T02:16:26;101218.22;;;12.74;100.00
9764;BME280;4921;43.214;27.936;2023-10-19T02:18:53;101217.53;;;12.72;100.00
9764;BME280;4921;43.214;27.936;2023-10-19T02:21:20;101217.53;;;12.72;100.00
9764;BME280;4921;43.214;27.936;2023-10-19T02:23:47;101221.00;;;12.61;100.00
9764;BME280;4921;43.214;27.936;2023-10-19T02:26:16;101213.31;;;12.69;100.00
9764;BME280;4921;43.214;27.936;2023-10-19T02:28:44;101212.81;;;12.75;100.00
9764;BME280;4921;43.214;27.936;2023-10-19T02:31:11;101213.91;;;12.84;100.00
9764;BME280;4921;43.214;27.936;2023-10-19T02:33:41;101207.41;;;12.77;100.00
9764;BME280;4921;43.214;27.936;2023-10-19T02:36:13;101195.41;;;12.84;100.00
9764;BME280;4921;43.214;27.936;2023-10-19T02:38:41;101214.47;;;12.87;100.00
9764;BME280;4921;43.214;27.936;2023-10-19T02:41:14;101212.97;;;12.74;100.00
9764;BME280;4921;43.214;27.936;2023-10-19T02:43:41;101215.25;;;12.67;100.00
9764;BME280;4921;43.214;27.936;2023-10-19T02:46:12;101214.03;;;12.71;100.00
9764;BME280;4921;43.214;27.936;2023-10-19T02:48:42;101212.34;;;12.70;100.00
9764;BME280;4921;43.214;27.936;2023-10-19T02:51:10;101210.81;;;12.68;100.00
9764;BME280;4921;43.214;27.936;2023-10-19T02:53:39;101206.47;;;12.78;100.00
9764;BME280;4921;43.214;27.936;2023-10-19T02:56:12;101206.34;;;12.68;100.00
9764;BME280;4921;43.214;27.936;2023-10-19T02:58:43;101209.69;;;12.70;100.00
9764;BME280;4921;43.214;27.936;2023-10-19T03:01:15;101200.34;;;12.77;100.00
9764;BME280;4921;43.214;27.936;2023-10-19T03:03:48;101193.50;;;12.75;100.00
9764;BME280;4921;43.214;27.936;2023-10-19T03:06:18;101200.97;;;12.70;100.00
9764;BME280;4921;43.214;27.936;2023-10-19T03:08:46;101199.41;;;12.67;100.00
9764;BME280;4921;43.214;27.936;2023-10-19T03:11:17;101196.91;;;12.66;100.00
9764;BME280;4921;43.214;27.936;2023-10-19T03:13:45;101193.41;;;12.65;100.00
9764;BME280;4921;43.214;27.936;2023-10-19T03:16:17;101198.69;;;12.76;100.00
9764;BME280;4921;43.214;27.936;2023-10-19T03:18:43;101202.50;;;12.72;100.00
9764;BME280;4921;43.214;27.936;2023-10-19T03:21:10;101191.34;;;12.69;100.00
9764;BME280;4921;43.214;27.936;2023-10-19T03:23:36;101186.78;;;12.71;100.00
9764;BME280;4921;43.214;27.936;2023-10-19T03:26:04;101183.94;;;12.74;100.00
9764;BME280;4921;43.214;27.936;2023-10-19T03:28:53;101185.22;;;12.68;100.00
9764;BME280;4921;43.214;27.936;2023-10-19T03:31:24;101186.44;;;12.75;100.00
9764;BME280;4921;43.214;27.936;2023-10-19T03:33:51;101175.41;;;12.70;100.00
9764;BME280;4921;43.214;27.936;2023-10-19T03:36:22;101182.00;;;12.65;100.00
9764;BME280;4921;43.214;27.936;2023-10-19T03:38:49;101178.38;;;12.77;100.00
9764;BME280;4921;43.214;27.936;2023-10-19T03:41:19;101175.28;;;12.72;100.00
9764;BME280;4921;43.214;27.936;2023-10-19T03:43:48;101170.81;;;12.72;100.00
9764;BME280;4921;43.214;27.936;2023-10-19T03:46:17;101171.22;;;12.68;100.00
9764;BME280;4921;43.214;27.936;2023-10-19T03:48:56;101173.47;;;12.72;100.00
9764;BME280;4921;43.214;27.936;2023-10-19T03:51:29;101178.75;;;12.72;100.00
9764;BME280;4921;43.214;27.936;2023-10-19T03:54:05;101169.88;;;12.73;100.00
9764;BME280;4921;43.214;27.936;2023-10-19T03:56:48;101176.34;;;12.80;100.00
9764;BME280;4921;43.214;27.936;2023-10-19T03:59:15;101181.38;;;12.83;100.00
9764;BME280;4921;43.214;27.936;2023-10-19T04:01:43;101177.22;;;12.81;100.00
9764;BME280;4921;43.214;27.936;2023-10-19T04:04:11;101176.09;;;12.83;100.00
9764;BME280;4921;43.214;27.936;2023-10-19T04:06:39;101170.72;;;12.85;100.00
9764;BME280;4921;43.214;27.936;2023-10-19T04:09:07;101176.00;;;12.85;100.00
9764;BME280;4921;43.214;27.936;2023-10-19T04:11:35;101173.22;;;12.86;100.00
9764;BME280;4921;43.214;27.936;2023-10-19T04:14:13;101179.00;;;12.80;100.00
9764;BME280;4921;43.214;27.936;2023-10-19T04:16:41;101180.66;;;12.81;100.00
9764;BME280;4921;43.214;27.936;2023-10-19T04:19:09;101173.94;;;12.77;100.00
9764;BME280;4921;43.214;27.936;2023-10-19T04:21:37;101174.81;;;12.78;100.00
9764;BME280;4921;43.214;27.936;2023-10-19T04:24:05;101172.28;;;12.76;100.00
9764;BME280;4921;43.214;27.936;2023-10-19T04:26:33;101168.31;;;12.71;100.00
9764;BME280;4921;43.214;27.936;2023-10-19T04:29:03;101166.03;;;12.77;100.00
9764;BME280;4921;43.214;27.936;2023-10-19T04:31:35;101172.38;;;12.86;100.00
9764;BME280;4921;43.214;27.936;2023-10-19T04:34:06;101176.81;;;12.85;100.00
9764;BME280;4921;43.214;27.936;2023-10-19T04:36:34;101170.97;;;12.71;100.00
9764;BME280;4921;43.214;27.936;2023-10-19T04:39:03;101180.22;;;12.65;100.00
9764;BME280;4921;43.214;27.936;2023-10-19T04:41:30;101182.38;;;12.71;100.00
9764;BME280;4921;43.214;27.936;2023-10-19T04:43:57;101190.28;;;12.71;100.00
9764;BME280;4921;43.214;27.936;2023-10-19T04:46:26;101174.09;;;12.65;100.00
9764;BME280;4921;43.214;27.936;2023-10-19T04:48:54;101184.78;;;12.74;100.00
9764;BME280;4921;43.214;27.936;2023-10-19T04:51:22;101184.38;;;12.79;100.00
9764;BME280;4921;43.214;27.936;2023-10-19T04:53:49;101186.78;;;12.82;100.00
9764;BME280;4921;43.214;27.936;2023-10-19T04:56:17;101194.69;;;12.82;100.00
9764;BME280;4921;43.214;27.936;2023-10-19T04:58:44;101196.50;;;12.81;100.00
9764;BME280;4921;43.214;27.936;2023-10-19T05:01:12;101196.84;;;12.88;100.00
9764;BME280;4921;43.214;27.936;2023-10-19T05:03:40;101199.59;;;12.97;100.00
9764;BME280;4921;43.214;27.936;2023-10-19T05:06:07;101193.72;;;12.94;100.00
9764;BME280;4921;43.214;27.936;2023-10-19T05:08:35;101193.97;;;12.91;100.00
9764;BME280;4921;43.214;27.936;2023-10-19T05:11:02;101197.19;;;12.94;100.00
9764;BME280;4921;43.214;27.936;2023-10-19T05:13:32;101201.06;;;12.90;100.00
9764;BME280;4921;43.214;27.936;2023-10-19T05:16:00;101199.47;;;12.99;100.00
9764;BME280;4921;43.214;27.936;2023-10-19T05:18:27;101197.09;;;13.07;100.00
9764;BME280;4921;43.214;27.936;2023-10-19T05:20:55;101197.69;;;13.11;100.00
9764;BME280;4921;43.214;27.936;2023-10-19T05:23:22;101195.41;;;13.17;100.00
9764;BME280;4921;43.214;27.936;2023-10-19T05:25:50;101198.84;;;13.18;100.00
9764;BME280;4921;43.214;27.936;2023-10-19T05:28:19;101200.50;;;13.30;100.00
9764;BME280;4921;43.214;27.936;2023-10-19T05:30:48;101201.44;;;13.40;100.00
9764;BME280;4921;43.214;27.936;2023-10-19T05:33:16;101201.91;;;13.45;100.00
9764;BME280;4921;43.214;27.936;2023-10-19T05:35:46;101205.84;;;13.50;100.00
9764;BME280;4921;43.214;27.936;2023-10-19T05:38:13;101200.31;;;13.53;100.00
9764;BME280;4921;43.214;27.936;2023-10-19T05:40:40;101200.88;;;13.57;100.00
9764;BME280;4921;43.214;27.936;2023-10-19T05:43:09;101199.41;;;13.64;100.00
9764;BME280;4921;43.214;27.936;2023-10-19T05:45:36;101199.97;;;13.67;100.00
9764;BME280;4921;43.214;27.936;2023-10-19T05:48:05;101205.34;;;13.77;100.00
9764;BME280;4921;43.214;27.936;2023-10-19T05:50:33;101201.34;;;13.83;100.00
9764;BME280;4921;43.214;27.936;2023-10-19T05:53:00;101203.50;;;13.89;100.00
9764;BME280;4921;43.214;27.936;2023-10-19T05:55:29;101199.09;;;13.99;100.00
9764;BME280;4921;43.214;27.936;2023-10-19T05:57:57;101199.56;;;14.04;100.00
9764;BME280;4921;43.214;27.936;2023-10-19T06:00:24;101207.53;;;14.13;100.00
9764;BME280;4921;43.214;27.936;2023-10-19T06:02:52;101211.06;;;14.23;100.00
9764;BME280;4921;43.214;27.936;2023-10-19T06:05:21;101205.75;;;14.34;100.00
9764;BME280;4921;43.214;27.936;2023-10-19T06:07:50;101210.94;;;14.45;100.00
9764;BME280;4921;43.214;27.936;2023-10-19T06:10:18;101197.16;;;14.42;100.00
9764;BME280;4921;43.214;27.936;2023-10-19T06:12:48;101210.91;;;14.66;100.00
9764;BME280;4921;43.214;27.936;2023-10-19T06:15:16;101209.13;;;14.76;100.00
9764;BME280;4921;43.214;27.936;2023-10-19T06:17:44;101209.19;;;14.86;100.00
9764;BME280;4921;43.214;27.936;2023-10-19T06:20:12;101207.94;;;14.99;100.00
9764;BME280;4921;43.214;27.936;2023-10-19T06:22:50;101214.81;;;15.11;100.00
9764;BME280;4921;43.214;27.936;2023-10-19T06:25:18;101212.03;;;15.22;100.00
9764;BME280;4921;43.214;27.936;2023-10-19T06:27:47;101206.59;;;15.34;100.00
9764;BME280;4921;43.214;27.936;2023-10-19T06:30:14;101210.53;;;15.49;100.00
9764;BME280;4921;43.214;27.936;2023-10-19T06:32:48;101206.66;;;15.62;100.00
9764;BME280;4921;43.214;27.936;2023-10-19T06:35:16;101207.34;;;15.74;100.00
9764;BME280;4921;43.214;27.936;2023-10-19T06:37:43;101205.38;;;15.85;100.00
9764;BME280;4921;43.214;27.936;2023-10-19T06:40:13;101206.06;;;15.97;100.00
9764;BME280;4921;43.214;27.936;2023-10-19T06:42:40;101206.75;;;16.09;100.00
9764;BME280;4921;43.214;27.936;2023-10-19T06:45:08;101208.25;;;16.21;100.00
9764;BME280;4921;43.214;27.936;2023-10-19T06:47:39;101213.41;;;16.32;100.00
9764;BME280;4921;43.214;27.936;2023-10-19T06:50:08;101209.03;;;16.40;100.00
9764;BME280;4921;43.214;27.936;2023-10-19T06:52:36;101200.19;;;16.49;100.00
9764;BME280;4921;43.214;27.936;2023-10-19T06:55:04;101200.75;;;16.62;100.00
9764;BME280;4921;43.214;27.936;2023-10-19T06:57:34;101204.72;;;16.76;100.00
9764;BME280;4921;43.214;27.936;2023-10-19T07:00:01;101198.75;;;16.92;100.00
9764;BME280;4921;43.214;27.936;2023-10-19T07:02:40;101200.78;;;17.07;100.00
9764;BME280;4921;43.214;27.936;2023-10-19T07:05:07;101193.63;;;17.25;100.00
9764;BME280;4921;43.214;27.936;2023-10-19T07:07:36;101194.44;;;17.35;100.00
9764;BME280;4921;43.214;27.936;2023-10-19T07:10:06;101198.84;;;17.44;100.00
9764;BME280;4921;43.214;27.936;2023-10-19T07:12:35;101199.53;;;17.46;100.00
9764;BME280;4921;43.214;27.936;2023-10-19T07:15:04;101199.47;;;17.56;100.00
9764;BME280;4921;43.214;27.936;2023-10-19T07:17:33;101190.13;;;17.70;100.00
9764;BME280;4921;43.214;27.936;2023-10-19T07:20:00;101190.84;;;17.80;100.00
9764;BME280;4921;43.214;27.936;2023-10-19T07:22:28;101179.84;;;17.75;100.00
9764;BME280;4921;43.214;27.936;2023-10-19T07:24:56;101186.97;;;17.92;100.00
9764;BME280;4921;43.214;27.936;2023-10-19T07:27:23;101176.00;;;17.95;100.00
9764;BME280;4921;43.214;27.936;2023-10-19T07:29:55;101184.72;;;18.05;100.00
9764;BME280;4921;43.214;27.936;2023-10-19T07:32:22;101184.78;;;18.13;100.00
9764;BME280;4921;43.214;27.936;2023-10-19T07:34:49;101184.31;;;18.17;100.00
9764;BME280;4921;43.214;27.936;2023-10-19T07:37:16;101184.06;;;18.28;100.00
9764;BME280;4921;43.214;27.936;2023-10-19T07:39:45;101183.22;;;18.28;100.00
9764;BME280;4921;43.214;27.936;2023-10-19T07:42:11;101185.88;;;18.28;100.00
9764;BME280;4921;43.214;27.936;2023-10-19T07:44:38;101183.31;;;18.18;100.00
9764;BME280;4921;43.214;27.936;2023-10-19T07:47:07;101184.19;;;18.27;100.00
9764;BME280;4921;43.214;27.936;2023-10-19T07:49:35;101173.75;;;18.34;100.00
9764;BME280;4921;43.214;27.936;2023-10-19T07:52:04;101174.78;;;18.41;100.00
9764;BME280;4921;43.214;27.936;2023-10-19T07:54:32;101169.09;;;18.36;100.00
9764;BME280;4921;43.214;27.936;2023-10-19T07:56:59;101162.31;;;18.41;100.00
9764;BME280;4921;43.214;27.936;2023-10-19T07:59:29;101163.81;;;18.18;100.00
9764;BME280;4921;43.214;27.936;2023-10-19T08:01:55;101166.75;;;18.33;100.00
9764;BME280;4921;43.214;27.936;2023-10-19T08:04:24;101163.81;;;18.44;100.00
9764;BME280;4921;43.214;27.936;2023-10-19T08:06:53;101166.72;;;18.50;100.00
9764;BME280;4921;43.214;27.936;2023-10-19T08:09:20;101163.22;;;18.50;100.00
9764;BME280;4921;43.214;27.936;2023-10-19T08:11:49;101164.94;;;18.59;100.00
9764;BME280;4921;43.214;27.936;2023-10-19T08:14:21;101170.78;;;18.70;100.00
9764;BME280;4921;43.214;27.936;2023-10-19T08:16:48;101164.00;;;18.84;100.00
9764;BME280;4921;43.214;27.936;2023-10-19T08:19:15;101166.66;;;18.84;100.00
9764;BME280;4921;43.214;27.936;2023-10-19T08:21:43;101163.00;;;18.85;100.00
9764;BME280;4921;43.214;27.936;2023-10-19T08:24:10;101160.34;;;18.85;100.00
9764;BME280;4921;43.214;27.936;2023-10-19T08:26:39;101157.06;;;18.99;100.00
9764;BME280;4921;43.214;27.936;2023-10-19T08:29:07;101154.56;;;18.97;100.00
9764;BME280;4921;43.214;27.936;2023-10-19T08:31:38;101148.38;;;18.89;100.00
9764;BME280;4921;43.214;27.936;2023-10-19T08:34:06;101153.00;;;18.87;100.00
9764;BME280;4921;43.214;27.936;2023-10-19T08:36:35;101156.50;;;18.87;100.00
9764;BME280;4921;43.214;27.936;2023-10-19T08:39:04;101155.91;;;19.10;100.00
9764;BME280;4921;43.214;27.936;2023-10-19T08:41:33;101158.25;;;19.21;100.00
9764;BME280;4921;43.214;27.936;2023-10-19T08:44:03;101154.94;;;19.11;100.00
9764;BME280;4921;43.214;27.936;2023-10-19T08:46:30;101156.75;;;19.18;100.00
9764;BME280;4921;43.214;27.936;2023-10-19T08:48:57;101150.28;;;19.37;100.00
9764;BME280;4921;43.214;27.936;2023-10-19T08:51:24;101151.97;;;19.38;100.00
9764;BME280;4921;43.214;27.936;2023-10-19T08:53:53;101144.16;;;19.44;100.00
9764;BME280;4921;43.214;27.936;2023-10-19T08:56:22;101144.31;;;19.67;100.00
9764;BME280;4921;43.214;27.936;2023-10-19T08:58:51;101149.81;;;19.65;100.00
9764;BME280;4921;43.214;27.936;2023-10-19T09:01:18;101151.81;;;19.63;100.00
9764;BME280;4921;43.214;27.936;2023-10-19T09:03:50;101155.81;;;19.84;100.00
9764;BME280;4921;43.214;27.936;2023-10-19T09:06:17;101151.31;;;19.92;100.00
9764;BME280;4921;43.214;27.936;2023-10-19T09:08:47;101141.16;;;19.80;100.00
9764;BME280;4921;43.214;27.936;2023-10-19T09:11:15;101139.81;;;19.84;100.00
9764;BME280;4921;43.214;27.936;2023-10-19T09:13:47;101138.13;;;19.74;100.00
9764;BME280;4921;43.214;27.936;2023-10-19T09:16:15;101140.28;;;19.87;100.00
9764;BME280;4921;43.214;27.936;2023-10-19T09:18:42;101140.13;;;19.81;100.00
9764;BME280;4921;43.214;27.936;2023-10-19T09:21:10;101136.97;;;19.77;100.00
9764;BME280;4921;43.214;27.936;2023-10-19T09:23:49;101127.16;;;19.53;100.00
9764;BME280;4921;43.214;27.936;2023-10-19T09:26:17;101125.97;;;19.72;100.00
9764;BME280;4921;43.214;27.936;2023-10-19T09:28:48;101122.44;;;19.71;100.00
9764;BME280;4921;43.214;27.936;2023-10-19T09:31:15;101125.94;;;19.88;100.00
9764;BME280;4921;43.214;27.936;2023-10-19T09:33:44;101122.44;;;19.71;100.00
9764;BME280;4921;43.214;27.936;2023-10-19T09:36:12;101119.44;;;19.83;100.00
9764;BME280;4921;43.214;27.936;2023-10-19T09:38:39;101105.91;;;19.84;100.00
9764;BME280;4921;43.214;27.936;2023-10-19T09:41:12;101101.22;;;19.94;100.00
9764;BME280;4921;43.214;27.936;2023-10-19T09:43:42;101080.91;;;19.85;100.00
9764;BME280;4921;43.214;27.936;2023-10-19T09:46:12;101109.94;;;19.88;100.00
9764;BME280;4921;43.214;27.936;2023-10-19T09:48:45;101096.53;;;20.04;100.00
9764;BME280;4921;43.214;27.936;2023-10-19T09:51:14;101094.03;;;20.03;100.00
9764;BME280;4921;43.214;27.936;2023-10-19T09:53:44;101089.59;;;19.79;100.00
9764;BME280;4921;43.214;27.936;2023-10-19T09:56:16;101083.06;;;19.90;100.00
9764;BME280;4921;43.214;27.936;2023-10-19T09:58:46;101070.91;;;19.79;100.00
9764;BME280;4921;43.214;27.936;2023-10-19T10:01:16;101070.06;;;19.78;100.00
9764;BME280;4921;43.214;27.936;2023-10-19T10:03:48;101071.06;;;19.86;100.00
9764;BME280;4921;43.214;27.936;2023-10-19T10:06:17;101073.59;;;19.63;100.00
9764;BME280;4921;43.214;27.936;2023-10-19T10:08:53;101070.09;;;19.70;100.00
9764;BME280;4921;43.214;27.936;2023-10-19T10:11:22;101062.25;;;19.61;100.00
9764;BME280;4921;43.214;27.936;2023-10-19T10:13:52;101045.56;;;19.67;100.00
9764;BME280;4921;43.214;27.936;2023-10-19T10:16:23;101051.19;;;19.80;100.00
9764;BME280;4921;43.214;27.936;2023-10-19T10:18:53;101041.50;;;19.87;100.00
9764;BME280;4921;43.214;27.936;2023-10-19T10:21:22;101033.31;;;19.97;100.00
9764;BME280;4921;43.214;27.936;2023-10-19T10:23:51;101020.63;;;19.99;100.00
9764;BME280;4921;43.214;27.936;2023-10-19T10:26:20;101025.53;;;20.18;100.00
9764;BME280;4921;43.214;27.936;2023-10-19T10:29:08;101011.53;;;20.16;100.00
9764;BME280;4921;43.214;27.936;2023-10-19T10:31:42;101021.38;;;20.15;100.00
9764;BME280;4921;43.214;27.936;2023-10-19T10:34:10;101006.84;;;20.26;100.00
9764;BME280;4921;43.214;27.936;2023-10-19T10:36:57;100994.63;;;20.31;100.00
9764;BME280;4921;43.214;27.936;2023-10-19T10:39:26;101002.28;;;20.34;100.00
9764;BME280;4921;43.214;27.936;2023-10-19T10:41:56;100994.44;;;20.33;100.00
9764;BME280;4921;43.214;27.936;2023-10-19T10:44:39;101004.38;;;20.47;100.00
9764;BME280;4921;43.214;27.936;2023-10-19T10:47:10;100983.56;;;20.34;100.00
9764;BME280;4921;43.214;27.936;2023-10-19T10:49:50;100988.25;;;20.32;100.00
9764;BME280;4921;43.214;27.936;2023-10-19T10:52:28;100963.78;;;20.13;100.00
9764;BME280;4921;43.214;27.936;2023-10-19T10:54:55;100978.03;;;20.36;100.00
9764;BME280;4921;43.214;27.936;2023-10-19T10:57:22;100980.03;;;20.42;100.00
9764;BME280;4921;43.214;27.936;2023-10-19T11:00:01;100972.38;;;20.39;100.00
9764;BME280;4921;43.214;27.936;2023-10-19T11:02:31;100974.69;;;20.42;100.00
9764;BME280;4921;43.214;27.936;2023-10-19T11:04:58;100968.13;;;20.44;100.00
9764;BME280;4921;43.214;27.936;2023-10-19T11:07:25;100961.69;;;20.39;100.00
9764;BME280;4921;43.214;27.936;2023-10-19T11:09:52;100967.06;;;20.31;100.00
9764;BME280;4921;43.214;27.936;2023-10-19T11:12:20;100964.88;;;20.34;100.00
9764;BME280;4921;43.214;27.936;2023-10-19T11:14:53;100957.81;;;20.41;100.00
9764;BME280;4921;43.214;27.936;2023-10-19T11:17:21;100954.31;;;20.41;100.00
9764;BME280;4921;43.214;27.936;2023-10-19T11:19:55;100954.66;;;20.38;100.00
9764;BME280;4921;43.214;27.936;2023-10-19T11:22:25;100959.44;;;20.20;100.00
9764;BME280;4921;43.214;27.936;2023-10-19T11:24:52;100952.47;;;20.41;100.00
9764;BME280;4921;43.214;27.936;2023-10-19T11:27:24;100953.47;;;20.40;100.00
9764;BME280;4921;43.214;27.936;2023-10-19T11:29:54;100965.31;;;20.46;100.00
9764;BME280;4921;43.214;27.936;2023-10-19T11:32:22;100963.03;;;20.35;100.00
9764;BME280;4921;43.214;27.936;2023-10-19T11:34:51;100958.09;;;20.24;100.00
9764;BME280;4921;43.214;27.936;2023-10-19T11:37:19;100951.41;;;20.20;100.00
9764;BME280;4921;43.214;27.936;2023-10-19T11:39:46;100953.13;;;20.13;100.00
9764;BME280;4921;43.214;27.936;2023-10-19T11:42:15;100938.88;;;20.28;100.00
9764;BME280;4921;43.214;27.936;2023-10-19T11:44:43;100936.91;;;20.45;98.62
9764;BME280;4921;43.214;27.936;2023-10-19T11:47:11;100941.91;;;20.48;99.70
9764;BME280;4921;43.214;27.936;2023-10-19T11:49:38;100932.06;;;20.48;95.77
9764;BME280;4921;43.214;27.936;2023-10-19T11:52:06;100937.44;;;20.40;98.63
9764;BME280;4921;43.214;27.936;2023-10-19T11:54:35;100924.84;;;20.49;89.52
9764;BME280;4921;43.214;27.936;2023-10-19T11:57:02;100921.03;;;20.66;83.07
9764;BME280;4921;43.214;27.936;2023-10-19T11:59:29;100919.34;;;20.50;91.38
9764;BME280;4921;43.214;27.936;2023-10-19T12:01:56;100932.31;;;20.62;93.77
9764;BME280;4921;43.214;27.936;2023-10-19T12:04:24;100922.25;;;20.64;97.90
9764;BME280;4921;43.214;27.936;2023-10-19T12:06:52;100926.06;;;20.84;99.96
9764;BME280;4921;43.214;27.936;2023-10-19T12:09:19;100916.31;;;20.76;97.52
9764;BME280;4921;43.214;27.936;2023-10-19T12:11:51;100916.72;;;20.65;100.00
9764;BME280;4921;43.214;27.936;2023-10-19T12:14:20;100914.44;;;20.77;100.00
9764;BME280;4921;43.214;27.936;2023-10-19T12:16:48;100909.47;;;20.74;100.00
9764;BME280;4921;43.214;27.936;2023-10-19T12:19:15;100923.78;;;20.58;100.00
9764;BME280;4921;43.214;27.936;2023-10-19T12:21:44;100908.94;;;20.56;100.00
9764;BME280;4921;43.214;27.936;2023-10-19T12:24:11;100905.91;;;20.59;100.00
9764;BME280;4921;43.214;27.936;2023-10-19T12:26:38;100903.13;;;20.52;100.00
9764;BME280;4921;43.214;27.936;2023-10-19T12:29:07;100915.06;;;20.41;100.00
9764;BME280;4921;43.214;27.936;2023-10-19T12:31:36;100906.09;;;20.34;100.00
9764;BME280;4921;43.214;27.936;2023-10-19T12:34:05;100906.88;;;20.43;96.97
9764;BME280;4921;43.214;27.936;2023-10-19T12:36:34;100907.59;;;20.37;100.00
9764;BME280;4921;43.214;27.936;2023-10-19T12:39:01;100900.41;;;20.37;99.17
9764;BME280;4921;43.214;27.936;2023-10-19T12:41:30;100896.84;;;20.22;100.00
9764;BME280;4921;43.214;27.936;2023-10-19T12:43:58;100900.53;;;20.13;97.61
9764;BME280;4921;43.214;27.936;2023-10-19T12:46:29;100887.53;;;20.10;100.00
9764;BME280;4921;43.214;27.936;2023-10-19T12:48:56;100887.00;;;20.15;100.00
9764;BME280;4921;43.214;27.936;2023-10-19T12:51:25;100879.78;;;20.23;100.00
9764;BME280;4921;43.214;27.936;2023-10-19T12:53:52;100888.25;;;20.35;100.00
9764;BME280;4921;43.214;27.936;2023-10-19T12:56:18;100877.19;;;20.38;100.00
9764;BME280;4921;43.214;27.936;2023-10-19T12:58:46;100880.41;;;20.33;100.00
9764;BME280;4921;43.214;27.936;2023-10-19T13:01:13;100879.81;;;20.46;100.00